sensor_id;sensor_type;location;lat;lon;timestamp;P1;durP1;ratioP1;P2;durP2;ratioP2
51927;SDS011;37953;52.806;18.270;2023-04-08T08:44:54;28.80;;;15.63;;
51927;SDS011;37953;52.806;18.270;2023-04-08T08:47:20;39.78;;;17.40;;
51927;SDS011;37953;52.806;18.270;2023-04-08T08:49:46;30.58;;;16.48;;
51927;SDS011;37953;52.806;18.270;2023-04-08T08:52:15;30.13;;;17.00;;
51927;SDS011;37953;52.806;18.270;2023-04-08T08:54:43;33.58;;;18.20;;
51927;SDS011;37953;52.806;18.270;2023-04-08T08:57:18;32.70;;;15.88;;
51927;SDS011;37953;52.806;18.270;2023-04-08T08:59:45;31.10;;;15.35;;
51927;SDS011;37953;52.806;18.270;2023-04-08T09:02:25;33.20;;;17.27;;
51927;SDS011;37953;52.806;18.270;2023-04-08T09:05:02;36.90;;;16.38;;
51927;SDS011;37953;52.806;18.270;2023-04-08T09:07:30;34.10;;;17.02;;
51927;SDS011;37953;52.806;18.270;2023-04-08T09:10:05;31.38;;;16.00;;
51927;SDS011;37953;52.806;18.270;2023-04-08T09:12:31;30.50;;;14.88;;
51927;SDS011;37953;52.806;18.270;2023-04-08T09:15:04;34.00;;;16.17;;
51927;SDS011;37953;52.806;18.270;2023-04-08T09:17:35;29.70;;;15.95;;
51927;SDS011;37953;52.806;18.270;2023-04-08T09:20:05;31.92;;;15.20;;
51927;SDS011;37953;52.806;18.270;2023-04-08T09:25:27;33.33;;;16.45;;
51927;SDS011;37953;52.806;18.270;2023-04-08T09:27:54;27.77;;;15.90;;
51927;SDS011;37953;52.806;18.270;2023-04-08T09:30:20;26.17;;;15.05;;
51927;SDS011;37953;52.806;18.270;2023-04-08T09:32:48;28.52;;;15.93;;
51927;SDS011;37953;52.806;18.270;2023-04-08T09:35:35;52.28;;;27.77;;
51927;SDS011;37953;52.806;18.270;2023-04-08T09:38:01;119.55;;;64.88;;
51927;SDS011;37953;52.806;18.270;2023-04-08T09:40:27;56.00;;;28.05;;
51927;SDS011;37953;52.806;18.270;2023-04-08T09:45:27;44.00;;;23.63;;
51927;SDS011;37953;52.806;18.270;2023-04-08T09:50:35;212.18;;;113.25;;
51927;SDS011;37953;52.806;18.270;2023-04-08T09:53:13;144.93;;;69.40;;
51927;SDS011;37953;52.806;18.270;2023-04-08T09:56:01;139.60;;;71.25;;
51927;SDS011;37953;52.806;18.270;2023-04-08T09:58:47;48.65;;;28.13;;
51927;SDS011;37953;52.806;18.270;2023-04-08T10:01:42;32.15;;;18.40;;
51927;SDS011;37953;52.806;18.270;2023-04-08T10:04:11;35.50;;;19.20;;
51927;SDS011;37953;52.806;18.270;2023-04-08T10:06:39;136.57;;;69.60;;
51927;SDS011;37953;52.806;18.270;2023-04-08T10:09:21;55.83;;;29.50;;
51927;SDS011;37953;52.806;18.270;2023-04-08T10:11:48;36.67;;;21.08;;
51927;SDS011;37953;52.806;18.270;2023-04-08T10:14:15;27.15;;;17.45;;
51927;SDS011;37953;52.806;18.270;2023-04-08T10:16:41;26.65;;;16.65;;
51927;SDS011;37953;52.806;18.270;2023-04-08T10:27:42;29.77;;;16.45;;
51927;SDS011;37953;52.806;18.270;2023-04-08T10:32:51;27.77;;;16.30;;
51927;SDS011;37953;52.806;18.270;2023-04-08T10:35:29;25.95;;;16.27;;
51927;SDS011;37953;52.806;18.270;2023-04-08T10:38:08;23.77;;;15.43;;
51927;SDS011;37953;52.806;18.270;2023-04-08T10:40:35;25.55;;;16.50;;
51927;SDS011;37953;52.806;18.270;2023-04-08T10:43:05;25.58;;;16.88;;
51927;SDS011;37953;52.806;18.270;2023-04-08T10:45:32;23.88;;;16.40;;
51927;SDS011;37953;52.806;18.270;2023-04-08T10:53:32;26.38;;;16.83;;
51927;SDS011;37953;52.806;18.270;2023-04-08T10:56:03;25.35;;;15.95;;
51927;SDS011;37953;52.806;18.270;2023-04-08T10:58:31;29.15;;;17.35;;
51927;SDS011;37953;52.806;18.270;2023-04-08T11:01:06;24.25;;;15.98;;
51927;SDS011;37953;52.806;18.270;2023-04-08T11:03:35;28.42;;;17.35;;
51927;SDS011;37953;52.806;18.270;2023-04-08T11:06:01;26.55;;;17.02;;
51927;SDS011;37953;52.806;18.270;2023-04-08T11:08:28;28.52;;;17.42;;
51927;SDS011;37953;52.806;18.270;2023-04-08T11:10:55;26.02;;;15.82;;
51927;SDS011;37953;52.806;18.270;2023-04-08T11:13:22;27.67;;;17.00;;
51927;SDS011;37953;52.806;18.270;2023-04-08T11:15:49;29.85;;;17.27;;
51927;SDS011;37953;52.806;18.270;2023-04-08T11:18:16;25.45;;;16.42;;
51927;SDS011;37953;52.806;18.270;2023-04-08T11:20:42;29.67;;;17.20;;
51927;SDS011;37953;52.806;18.270;2023-04-08T11:23:12;26.67;;;16.45;;
51927;SDS011;37953;52.806;18.270;2023-04-08T11:25:40;25.65;;;16.38;;
51927;SDS011;37953;52.806;18.270;2023-04-08T11:28:06;29.90;;;17.00;;
51927;SDS011;37953;52.806;18.270;2023-04-08T11:30:33;26.88;;;16.52;;
51927;SDS011;37953;52.806;18.270;2023-04-08T11:32:59;24.50;;;16.17;;
51927;SDS011;37953;52.806;18.270;2023-04-08T11:35:42;25.33;;;15.85;;
51927;SDS011;37953;52.806;18.270;2023-04-08T11:38:09;24.67;;;15.30;;
51927;SDS011;37953;52.806;18.270;2023-04-08T11:40:36;25.23;;;15.82;;
51927;SDS011;37953;52.806;18.270;2023-04-08T11:43:14;27.63;;;16.40;;
51927;SDS011;37953;52.806;18.270;2023-04-08T11:45:41;27.02;;;15.93;;
51927;SDS011;37953;52.806;18.270;2023-04-08T11:48:10;25.42;;;15.18;;
51927;SDS011;37953;52.806;18.270;2023-04-08T11:50:38;25.88;;;16.13;;
51927;SDS011;37953;52.806;18.270;2023-04-08T11:55:49;23.67;;;15.23;;
51927;SDS011;37953;52.806;18.270;2023-04-08T11:58:15;25.83;;;16.13;;
51927;SDS011;37953;52.806;18.270;2023-04-08T12:00:41;28.60;;;16.13;;
51927;SDS011;37953;52.806;18.270;2023-04-08T12:03:13;24.83;;;15.48;;
51927;SDS011;37953;52.806;18.270;2023-04-08T12:05:40;24.73;;;15.95;;
51927;SDS011;37953;52.806;18.270;2023-04-08T12:08:06;25.48;;;15.85;;
51927;SDS011;37953;52.806;18.270;2023-04-08T12:10:32;23.70;;;15.32;;
51927;SDS011;37953;52.806;18.270;2023-04-08T12:12:58;25.20;;;15.98;;
51927;SDS011;37953;52.806;18.270;2023-04-08T12:15:25;26.55;;;14.93;;
51927;SDS011;37953;52.806;18.270;2023-04-08T12:17:51;25.70;;;16.05;;
51927;SDS011;37953;52.806;18.270;2023-04-08T12:20:17;25.15;;;15.50;;
51927;SDS011;37953;52.806;18.270;2023-04-08T12:22:43;29.05;;;15.77;;
51927;SDS011;37953;52.806;18.270;2023-04-08T12:25:09;23.60;;;15.45;;
51927;SDS011;37953;52.806;18.270;2023-04-08T12:27:35;24.73;;;15.25;;
51927;SDS011;37953;52.806;18.270;2023-04-08T12:30:01;24.85;;;15.35;;
51927;SDS011;37953;52.806;18.270;2023-04-08T12:32:28;25.45;;;15.27;;
51927;SDS011;37953;52.806;18.270;2023-04-08T12:34:54;26.73;;;14.95;;
51927;SDS011;37953;52.806;18.270;2023-04-08T12:37:20;25.67;;;15.73;;
51927;SDS011;37953;52.806;18.270;2023-04-08T12:39:46;25.20;;;15.43;;
51927;SDS011;37953;52.806;18.270;2023-04-08T12:42:12;26.17;;;15.88;;
51927;SDS011;37953;52.806;18.270;2023-04-08T12:44:39;22.33;;;14.65;;
51927;SDS011;37953;52.806;18.270;2023-04-08T12:47:05;26.48;;;15.70;;
51927;SDS011;37953;52.806;18.270;2023-04-08T12:49:34;27.27;;;15.50;;
51927;SDS011;37953;52.806;18.270;2023-04-08T12:52:00;21.90;;;14.57;;
51927;SDS011;37953;52.806;18.270;2023-04-08T12:54:26;24.70;;;14.80;;
51927;SDS011;37953;52.806;18.270;2023-04-08T12:56:52;22.85;;;13.43;;
51927;SDS011;37953;52.806;18.270;2023-04-08T12:59:18;21.55;;;13.90;;
51927;SDS011;37953;52.806;18.270;2023-04-08T13:01:43;24.65;;;15.57;;
51927;SDS011;37953;52.806;18.270;2023-04-08T13:04:09;24.33;;;14.45;;
51927;SDS011;37953;52.806;18.270;2023-04-08T13:06:35;21.77;;;14.52;;
51927;SDS011;37953;52.806;18.270;2023-04-08T13:09:01;24.08;;;14.85;;
51927;SDS011;37953;52.806;18.270;2023-04-08T13:11:27;23.77;;;13.85;;
51927;SDS011;37953;52.806;18.270;2023-04-08T13:13:53;22.90;;;14.75;;
51927;SDS011;37953;52.806;18.270;2023-04-08T13:16:19;19.02;;;12.95;;
51927;SDS011;37953;52.806;18.270;2023-04-08T13:18:46;21.55;;;13.68;;
51927;SDS011;37953;52.806;18.270;2023-04-08T13:21:12;23.88;;;14.23;;
51927;SDS011;37953;52.806;18.270;2023-04-08T13:23:38;23.80;;;14.15;;
51927;SDS011;37953;52.806;18.270;2023-04-08T13:26:04;23.42;;;14.55;;
51927;SDS011;37953;52.806;18.270;2023-04-08T13:28:31;22.77;;;13.80;;
51927;SDS011;37953;52.806;18.270;2023-04-08T13:30:56;21.10;;;13.43;;
51927;SDS011;37953;52.806;18.270;2023-04-08T13:33:22;22.45;;;13.65;;
51927;SDS011;37953;52.806;18.270;2023-04-08T13:35:48;20.63;;;13.18;;
51927;SDS011;37953;52.806;18.270;2023-04-08T13:38:14;21.52;;;12.80;;
51927;SDS011;37953;52.806;18.270;2023-04-08T13:40:40;20.08;;;13.25;;
51927;SDS011;37953;52.806;18.270;2023-04-08T13:43:06;18.88;;;12.50;;
51927;SDS011;37953;52.806;18.270;2023-04-08T13:45:32;21.95;;;13.57;;
51927;SDS011;37953;52.806;18.270;2023-04-08T13:47:58;21.17;;;13.70;;
51927;SDS011;37953;52.806;18.270;2023-04-08T13:50:24;18.73;;;13.05;;
51927;SDS011;37953;52.806;18.270;2023-04-08T13:52:51;50.10;;;26.77;;
51927;SDS011;37953;52.806;18.270;2023-04-08T13:55:16;45.03;;;23.20;;
51927;SDS011;37953;52.806;18.270;2023-04-08T13:57:43;34.92;;;19.95;;
51927;SDS011;37953;52.806;18.270;2023-04-08T14:00:09;23.42;;;14.65;;
51927;SDS011;37953;52.806;18.270;2023-04-08T14:02:35;21.15;;;13.52;;
51927;SDS011;37953;52.806;18.270;2023-04-08T14:05:01;18.65;;;12.80;;
51927;SDS011;37953;52.806;18.270;2023-04-08T14:07:27;18.75;;;12.73;;
51927;SDS011;37953;52.806;18.270;2023-04-08T14:09:53;22.00;;;13.05;;
51927;SDS011;37953;52.806;18.270;2023-04-08T14:12:20;18.33;;;11.65;;
51927;SDS011;37953;52.806;18.270;2023-04-08T14:14:45;19.92;;;13.35;;
51927;SDS011;37953;52.806;18.270;2023-04-08T14:17:30;19.52;;;12.98;;
51927;SDS011;37953;52.806;18.270;2023-04-08T14:19:56;21.50;;;12.52;;
51927;SDS011;37953;52.806;18.270;2023-04-08T14:22:23;23.48;;;13.40;;
51927;SDS011;37953;52.806;18.270;2023-04-08T14:24:49;18.98;;;12.52;;
51927;SDS011;37953;52.806;18.270;2023-04-08T14:27:15;20.25;;;13.38;;
51927;SDS011;37953;52.806;18.270;2023-04-08T14:29:41;22.83;;;12.98;;
51927;SDS011;37953;52.806;18.270;2023-04-08T14:32:07;18.65;;;12.95;;
51927;SDS011;37953;52.806;18.270;2023-04-08T14:34:33;16.83;;;11.88;;
51927;SDS011;37953;52.806;18.270;2023-04-08T14:36:59;19.27;;;12.43;;
51927;SDS011;37953;52.806;18.270;2023-04-08T14:39:25;17.05;;;11.70;;
51927;SDS011;37953;52.806;18.270;2023-04-08T14:41:51;20.02;;;12.70;;
51927;SDS011;37953;52.806;18.270;2023-04-08T14:44:17;19.88;;;12.45;;
51927;SDS011;37953;52.806;18.270;2023-04-08T14:46:43;20.67;;;12.55;;
51927;SDS011;37953;52.806;18.270;2023-04-08T14:49:09;25.08;;;15.15;;
51927;SDS011;37953;52.806;18.270;2023-04-08T14:51:34;26.40;;;14.27;;
51927;SDS011;37953;52.806;18.270;2023-04-08T14:54:03;25.48;;;15.15;;
51927;SDS011;37953;52.806;18.270;2023-04-08T14:56:30;22.70;;;14.18;;
51927;SDS011;37953;52.806;18.270;2023-04-08T14:58:56;28.55;;;16.30;;
51927;SDS011;37953;52.806;18.270;2023-04-08T15:01:21;72.53;;;29.65;;
51927;SDS011;37953;52.806;18.270;2023-04-08T15:03:48;93.65;;;41.92;;
51927;SDS011;37953;52.806;18.270;2023-04-08T15:06:13;78.00;;;36.65;;
51927;SDS011;37953;52.806;18.270;2023-04-08T15:08:42;66.50;;;35.35;;
51927;SDS011;37953;52.806;18.270;2023-04-08T15:11:08;32.85;;;19.30;;
51927;SDS011;37953;52.806;18.270;2023-04-08T15:13:34;23.40;;;13.85;;
51927;SDS011;37953;52.806;18.270;2023-04-08T15:16:00;18.95;;;11.30;;
51927;SDS011;37953;52.806;18.270;2023-04-08T15:18:26;21.30;;;11.43;;
51927;SDS011;37953;52.806;18.270;2023-04-08T15:20:52;20.63;;;10.85;;
51927;SDS011;37953;52.806;18.270;2023-04-08T15:23:18;15.48;;;10.18;;
51927;SDS011;37953;52.806;18.270;2023-04-08T15:25:44;17.60;;;10.13;;
51927;SDS011;37953;52.806;18.270;2023-04-08T15:28:10;18.60;;;10.93;;
51927;SDS011;37953;52.806;18.270;2023-04-08T15:30:37;18.33;;;11.02;;
51927;SDS011;37953;52.806;18.270;2023-04-08T15:33:03;19.88;;;10.70;;
51927;SDS011;37953;52.806;18.270;2023-04-08T15:35:29;18.48;;;10.68;;
51927;SDS011;37953;52.806;18.270;2023-04-08T15:37:56;18.42;;;10.70;;
51927;SDS011;37953;52.806;18.270;2023-04-08T15:40:24;17.67;;;10.70;;
51927;SDS011;37953;52.806;18.270;2023-04-08T15:42:51;15.88;;;10.02;;
51927;SDS011;37953;52.806;18.270;2023-04-08T15:45:17;16.17;;;10.13;;
51927;SDS011;37953;52.806;18.270;2023-04-08T15:47:43;15.40;;;9.65;;
51927;SDS011;37953;52.806;18.270;2023-04-08T15:50:09;16.85;;;10.35;;
51927;SDS011;37953;52.806;18.270;2023-04-08T15:52:35;16.25;;;10.95;;
51927;SDS011;37953;52.806;18.270;2023-04-08T15:55:01;15.70;;;10.25;;
51927;SDS011;37953;52.806;18.270;2023-04-08T15:57:27;15.75;;;11.50;;
51927;SDS011;37953;52.806;18.270;2023-04-08T15:59:55;17.08;;;10.90;;
51927;SDS011;37953;52.806;18.270;2023-04-08T16:02:24;18.10;;;11.07;;
51927;SDS011;37953;52.806;18.270;2023-04-08T16:04:50;16.00;;;10.50;;
51927;SDS011;37953;52.806;18.270;2023-04-08T16:07:16;17.27;;;11.20;;
51927;SDS011;37953;52.806;18.270;2023-04-08T16:09:42;15.68;;;10.82;;
51927;SDS011;37953;52.806;18.270;2023-04-08T16:12:08;18.00;;;11.23;;
51927;SDS011;37953;52.806;18.270;2023-04-08T16:14:35;18.38;;;11.23;;
51927;SDS011;37953;52.806;18.270;2023-04-08T16:17:01;17.90;;;11.40;;
51927;SDS011;37953;52.806;18.270;2023-04-08T16:19:26;16.15;;;11.73;;
51927;SDS011;37953;52.806;18.270;2023-04-08T16:21:53;16.20;;;11.13;;
51927;SDS011;37953;52.806;18.270;2023-04-08T16:24:18;20.60;;;11.68;;
51927;SDS011;37953;52.806;18.270;2023-04-08T16:26:45;18.15;;;11.48;;
51927;SDS011;37953;52.806;18.270;2023-04-08T16:29:11;17.30;;;11.48;;
51927;SDS011;37953;52.806;18.270;2023-04-08T16:31:37;18.40;;;12.02;;
51927;SDS011;37953;52.806;18.270;2023-04-08T16:34:03;17.85;;;12.05;;
51927;SDS011;37953;52.806;18.270;2023-04-08T16:36:42;18.10;;;11.63;;
51927;SDS011;37953;52.806;18.270;2023-04-08T16:39:08;20.38;;;12.40;;
51927;SDS011;37953;52.806;18.270;2023-04-08T16:41:34;17.80;;;11.77;;
51927;SDS011;37953;52.806;18.270;2023-04-08T16:44:01;20.95;;;12.43;;
51927;SDS011;37953;52.806;18.270;2023-04-08T16:46:27;19.25;;;12.43;;
51927;SDS011;37953;52.806;18.270;2023-04-08T16:48:52;18.58;;;12.43;;
51927;SDS011;37953;52.806;18.270;2023-04-08T16:51:18;19.70;;;12.90;;
51927;SDS011;37953;52.806;18.270;2023-04-08T16:53:44;23.48;;;13.80;;
51927;SDS011;37953;52.806;18.270;2023-04-08T16:56:14;23.05;;;14.13;;
51927;SDS011;37953;52.806;18.270;2023-04-08T16:58:40;21.92;;;14.27;;
51927;SDS011;37953;52.806;18.270;2023-04-08T17:01:08;20.77;;;13.98;;
51927;SDS011;37953;52.806;18.270;2023-04-08T17:03:34;19.63;;;12.70;;
51927;SDS011;37953;52.806;18.270;2023-04-08T17:06:07;21.13;;;14.07;;
51927;SDS011;37953;52.806;18.270;2023-04-08T17:08:35;22.95;;;15.15;;
51927;SDS011;37953;52.806;18.270;2023-04-08T17:11:07;21.77;;;14.15;;
51927;SDS011;37953;52.806;18.270;2023-04-08T17:13:38;26.13;;;15.52;;
51927;SDS011;37953;52.806;18.270;2023-04-08T17:16:11;22.52;;;15.57;;
51927;SDS011;37953;52.806;18.270;2023-04-08T17:18:38;25.05;;;16.35;;
51927;SDS011;37953;52.806;18.270;2023-04-08T17:21:04;28.17;;;15.90;;
51927;SDS011;37953;52.806;18.270;2023-04-08T17:23:30;26.73;;;16.17;;
51927;SDS011;37953;52.806;18.270;2023-04-08T17:25:56;25.52;;;16.15;;
51927;SDS011;37953;52.806;18.270;2023-04-08T17:28:22;23.58;;;14.90;;
51927;SDS011;37953;52.806;18.270;2023-04-08T17:30:48;27.17;;;16.48;;
51927;SDS011;37953;52.806;18.270;2023-04-08T17:33:14;26.00;;;15.65;;
51927;SDS011;37953;52.806;18.270;2023-04-08T17:35:40;25.10;;;15.27;;
51927;SDS011;37953;52.806;18.270;2023-04-08T17:38:06;23.52;;;15.80;;
51927;SDS011;37953;52.806;18.270;2023-04-08T17:40:33;25.23;;;15.55;;
51927;SDS011;37953;52.806;18.270;2023-04-08T17:42:58;27.17;;;16.42;;
51927;SDS011;37953;52.806;18.270;2023-04-08T17:45:25;24.73;;;16.20;;
51927;SDS011;37953;52.806;18.270;2023-04-08T17:47:51;25.00;;;16.10;;
51927;SDS011;37953;52.806;18.270;2023-04-08T17:50:17;29.25;;;18.00;;
51927;SDS011;37953;52.806;18.270;2023-04-08T17:52:43;30.65;;;17.20;;
51927;SDS011;37953;52.806;18.270;2023-04-08T17:55:12;27.38;;;17.50;;
51927;SDS011;37953;52.806;18.270;2023-04-08T17:57:38;29.27;;;18.10;;
51927;SDS011;37953;52.806;18.270;2023-04-08T18:00:11;38.78;;;18.63;;
51927;SDS011;37953;52.806;18.270;2023-04-08T18:02:37;34.28;;;19.35;;
51927;SDS011;37953;52.806;18.270;2023-04-08T18:05:04;30.63;;;18.10;;
51927;SDS011;37953;52.806;18.270;2023-04-08T18:07:32;34.05;;;18.67;;
51927;SDS011;37953;52.806;18.270;2023-04-08T18:09:58;32.78;;;19.15;;
51927;SDS011;37953;52.806;18.270;2023-04-08T18:12:26;37.33;;;21.30;;
51927;SDS011;37953;52.806;18.270;2023-04-08T18:14:53;38.65;;;22.52;;
51927;SDS011;37953;52.806;18.270;2023-04-08T18:17:19;40.28;;;22.65;;
51927;SDS011;37953;52.806;18.270;2023-04-08T18:19:45;52.88;;;24.90;;
51927;SDS011;37953;52.806;18.270;2023-04-08T18:22:11;49.95;;;27.05;;
51927;SDS011;37953;52.806;18.270;2023-04-08T18:24:37;43.85;;;25.77;;
51927;SDS011;37953;52.806;18.270;2023-04-08T18:27:02;46.13;;;25.88;;
51927;SDS011;37953;52.806;18.270;2023-04-08T18:29:29;45.22;;;25.63;;
51927;SDS011;37953;52.806;18.270;2023-04-08T18:31:55;39.33;;;24.08;;
51927;SDS011;37953;52.806;18.270;2023-04-08T18:34:21;42.30;;;24.55;;
51927;SDS011;37953;52.806;18.270;2023-04-08T18:36:48;41.45;;;24.58;;
51927;SDS011;37953;52.806;18.270;2023-04-08T18:39:15;42.42;;;25.02;;
51927;SDS011;37953;52.806;18.270;2023-04-08T18:41:41;45.05;;;25.73;;
51927;SDS011;37953;52.806;18.270;2023-04-08T18:44:07;46.63;;;27.05;;
51927;SDS011;37953;52.806;18.270;2023-04-08T18:46:33;50.75;;;27.75;;
51927;SDS011;37953;52.806;18.270;2023-04-08T18:48:59;52.60;;;29.52;;
51927;SDS011;37953;52.806;18.270;2023-04-08T18:51:25;51.38;;;29.58;;
51927;SDS011;37953;52.806;18.270;2023-04-08T18:53:51;57.95;;;31.30;;
51927;SDS011;37953;52.806;18.270;2023-04-08T18:56:17;57.08;;;32.33;;
51927;SDS011;37953;52.806;18.270;2023-04-08T18:58:50;63.38;;;33.20;;
51927;SDS011;37953;52.806;18.270;2023-04-08T19:01:18;67.47;;;34.10;;
51927;SDS011;37953;52.806;18.270;2023-04-08T19:03:45;60.67;;;33.40;;
51927;SDS011;37953;52.806;18.270;2023-04-08T19:06:11;66.65;;;34.35;;
51927;SDS011;37953;52.806;18.270;2023-04-08T19:08:38;64.97;;;35.33;;
51927;SDS011;37953;52.806;18.270;2023-04-08T19:11:09;72.88;;;38.00;;
51927;SDS011;37953;52.806;18.270;2023-04-08T19:13:35;72.22;;;38.13;;
51927;SDS011;37953;52.806;18.270;2023-04-08T19:16:01;68.80;;;36.97;;
51927;SDS011;37953;52.806;18.270;2023-04-08T19:18:27;62.63;;;35.25;;
51927;SDS011;37953;52.806;18.270;2023-04-08T19:20:53;104.65;;;35.70;;
51927;SDS011;37953;52.806;18.270;2023-04-08T19:23:19;66.18;;;33.08;;
51927;SDS011;37953;52.806;18.270;2023-04-08T19:25:45;64.55;;;33.47;;
51927;SDS011;37953;52.806;18.270;2023-04-08T19:28:11;59.70;;;31.52;;
51927;SDS011;37953;52.806;18.270;2023-04-08T19:30:39;63.35;;;31.70;;
51927;SDS011;37953;52.806;18.270;2023-04-08T19:33:06;68.68;;;33.20;;
51927;SDS011;37953;52.806;18.270;2023-04-08T19:35:33;62.25;;;32.33;;
51927;SDS011;37953;52.806;18.270;2023-04-08T19:37:59;63.20;;;32.33;;
51927;SDS011;37953;52.806;18.270;2023-04-08T19:40:25;61.20;;;32.53;;
51927;SDS011;37953;52.806;18.270;2023-04-08T19:42:52;73.30;;;34.65;;
51927;SDS011;37953;52.806;18.270;2023-04-08T19:45:18;66.32;;;33.67;;
51927;SDS011;37953;52.806;18.270;2023-04-08T19:47:47;59.83;;;33.28;;
51927;SDS011;37953;52.806;18.270;2023-04-08T19:50:15;64.85;;;35.05;;
51927;SDS011;37953;52.806;18.270;2023-04-08T19:52:41;70.88;;;35.92;;
51927;SDS011;37953;52.806;18.270;2023-04-08T19:55:08;70.50;;;36.33;;
51927;SDS011;37953;52.806;18.270;2023-04-08T19:57:40;74.80;;;37.05;;
51927;SDS011;37953;52.806;18.270;2023-04-08T20:00:08;80.43;;;37.42;;
51927;SDS011;37953;52.806;18.270;2023-04-08T20:02:34;73.70;;;37.92;;
51927;SDS011;37953;52.806;18.270;2023-04-08T20:05:01;76.00;;;38.45;;
51927;SDS011;37953;52.806;18.270;2023-04-08T20:07:40;77.63;;;38.97;;
51927;SDS011;37953;52.806;18.270;2023-04-08T20:10:09;77.85;;;38.63;;
51927;SDS011;37953;52.806;18.270;2023-04-08T20:12:37;76.53;;;37.58;;
51927;SDS011;37953;52.806;18.270;2023-04-08T20:15:06;72.03;;;36.10;;
51927;SDS011;37953;52.806;18.270;2023-04-08T20:17:34;64.38;;;34.28;;
51927;SDS011;37953;52.806;18.270;2023-04-08T20:20:01;64.90;;;33.22;;
51927;SDS011;37953;52.806;18.270;2023-04-08T20:22:31;57.95;;;31.67;;
51927;SDS011;37953;52.806;18.270;2023-04-08T20:24:58;57.90;;;29.77;;
51927;SDS011;37953;52.806;18.270;2023-04-08T20:27:30;54.88;;;30.25;;
51927;SDS011;37953;52.806;18.270;2023-04-08T20:29:58;51.53;;;29.02;;
51927;SDS011;37953;52.806;18.270;2023-04-08T20:32:26;52.15;;;27.90;;
51927;SDS011;37953;52.806;18.270;2023-04-08T20:34:54;48.28;;;27.23;;
51927;SDS011;37953;52.806;18.270;2023-04-08T20:37:22;47.08;;;27.08;;
51927;SDS011;37953;52.806;18.270;2023-04-08T20:39:48;50.80;;;26.27;;
51927;SDS011;37953;52.806;18.270;2023-04-08T20:42:17;43.85;;;26.55;;
51927;SDS011;37953;52.806;18.270;2023-04-08T20:44:45;45.20;;;26.52;;
51927;SDS011;37953;52.806;18.270;2023-04-08T20:47:13;44.08;;;25.73;;
51927;SDS011;37953;52.806;18.270;2023-04-08T20:49:40;44.35;;;25.35;;
51927;SDS011;37953;52.806;18.270;2023-04-08T20:52:07;45.22;;;24.27;;
51927;SDS011;37953;52.806;18.270;2023-04-08T20:54:34;40.22;;;24.98;;
51927;SDS011;37953;52.806;18.270;2023-04-08T20:57:01;46.58;;;25.35;;
51927;SDS011;37953;52.806;18.270;2023-04-08T20:59:28;42.58;;;24.98;;
51927;SDS011;37953;52.806;18.270;2023-04-08T21:01:55;43.95;;;25.55;;
51927;SDS011;37953;52.806;18.270;2023-04-08T21:04:22;42.92;;;24.65;;
51927;SDS011;37953;52.806;18.270;2023-04-08T21:06:49;42.58;;;24.73;;
51927;SDS011;37953;52.806;18.270;2023-04-08T21:09:16;46.83;;;25.77;;
51927;SDS011;37953;52.806;18.270;2023-04-08T21:11:42;41.83;;;24.77;;
51927;SDS011;37953;52.806;18.270;2023-04-08T21:14:08;44.92;;;26.67;;
51927;SDS011;37953;52.806;18.270;2023-04-08T21:16:34;41.75;;;26.63;;
51927;SDS011;37953;52.806;18.270;2023-04-08T21:19:01;45.28;;;26.98;;
51927;SDS011;37953;52.806;18.270;2023-04-08T21:21:43;45.15;;;26.25;;
51927;SDS011;37953;52.806;18.270;2023-04-08T21:24:10;47.72;;;27.67;;
51927;SDS011;37953;52.806;18.270;2023-04-08T21:26:36;50.33;;;27.92;;
51927;SDS011;37953;52.806;18.270;2023-04-08T21:29:02;48.83;;;29.45;;
51927;SDS011;37953;52.806;18.270;2023-04-08T21:31:28;49.80;;;28.92;;
51927;SDS011;37953;52.806;18.270;2023-04-08T21:33:54;57.05;;;29.95;;
51927;SDS011;37953;52.806;18.270;2023-04-08T21:36:21;52.95;;;30.42;;
51927;SDS011;37953;52.806;18.270;2023-04-08T21:38:47;52.78;;;30.55;;
51927;SDS011;37953;52.806;18.270;2023-04-08T21:41:13;48.78;;;29.50;;
51927;SDS011;37953;52.806;18.270;2023-04-08T21:43:39;53.60;;;29.70;;
51927;SDS011;37953;52.806;18.270;2023-04-08T21:46:05;49.67;;;29.70;;
51927;SDS011;37953;52.806;18.270;2023-04-08T21:48:31;51.35;;;30.38;;
51927;SDS011;37953;52.806;18.270;2023-04-08T21:53:25;49.83;;;27.45;;
51927;SDS011;37953;52.806;18.270;2023-04-08T21:55:51;48.03;;;27.30;;
51927;SDS011;37953;52.806;18.270;2023-04-08T21:58:17;46.47;;;27.88;;
51927;SDS011;37953;52.806;18.270;2023-04-08T22:00:43;48.25;;;27.80;;
51927;SDS011;37953;52.806;18.270;2023-04-08T22:03:10;43.50;;;26.75;;
51927;SDS011;37953;52.806;18.270;2023-04-08T22:05:39;43.33;;;26.42;;
51927;SDS011;37953;52.806;18.270;2023-04-08T22:08:05;43.15;;;26.67;;
51927;SDS011;37953;52.806;18.270;2023-04-08T22:10:31;41.70;;;26.20;;
51927;SDS011;37953;52.806;18.270;2023-04-08T22:12:57;48.00;;;27.17;;
51927;SDS011;37953;52.806;18.270;2023-04-08T22:15:23;49.50;;;27.95;;
51927;SDS011;37953;52.806;18.270;2023-04-08T22:17:50;48.88;;;27.10;;
51927;SDS011;37953;52.806;18.270;2023-04-08T22:20:16;47.03;;;27.13;;
51927;SDS011;37953;52.806;18.270;2023-04-08T22:22:42;42.67;;;25.55;;
51927;SDS011;37953;52.806;18.270;2023-04-08T22:25:08;44.53;;;26.67;;
51927;SDS011;37953;52.806;18.270;2023-04-08T22:27:34;44.38;;;26.00;;
51927;SDS011;37953;52.806;18.270;2023-04-08T22:30:00;43.33;;;25.55;;
51927;SDS011;37953;52.806;18.270;2023-04-08T22:32:26;41.17;;;25.67;;
51927;SDS011;37953;52.806;18.270;2023-04-08T22:34:52;45.05;;;26.05;;
51927;SDS011;37953;52.806;18.270;2023-04-08T22:37:18;46.17;;;27.50;;
51927;SDS011;37953;52.806;18.270;2023-04-08T22:39:44;47.00;;;27.23;;
51927;SDS011;37953;52.806;18.270;2023-04-08T22:42:10;45.00;;;27.10;;
51927;SDS011;37953;52.806;18.270;2023-04-08T22:44:36;52.72;;;29.50;;
51927;SDS011;37953;52.806;18.270;2023-04-08T22:47:04;51.58;;;28.98;;
51927;SDS011;37953;52.806;18.270;2023-04-08T22:49:30;50.50;;;29.85;;
51927;SDS011;37953;52.806;18.270;2023-04-08T22:51:56;50.05;;;28.48;;
51927;SDS011;37953;52.806;18.270;2023-04-08T22:54:22;54.40;;;28.83;;
51927;SDS011;37953;52.806;18.270;2023-04-08T22:56:48;55.33;;;29.38;;
51927;SDS011;37953;52.806;18.270;2023-04-08T22:59:14;50.38;;;29.05;;
51927;SDS011;37953;52.806;18.270;2023-04-08T23:01:39;50.17;;;27.50;;
51927;SDS011;37953;52.806;18.270;2023-04-08T23:04:06;55.45;;;27.80;;
51927;SDS011;37953;52.806;18.270;2023-04-08T23:06:31;51.92;;;28.20;;
51927;SDS011;37953;52.806;18.270;2023-04-08T23:09:01;53.78;;;28.67;;
51927;SDS011;37953;52.806;18.270;2023-04-08T23:11:27;50.75;;;28.85;;
51927;SDS011;37953;52.806;18.270;2023-04-08T23:13:53;55.70;;;28.92;;
51927;SDS011;37953;52.806;18.270;2023-04-08T23:16:19;53.50;;;28.90;;
51927;SDS011;37953;52.806;18.270;2023-04-08T23:18:46;52.53;;;30.08;;
51927;SDS011;37953;52.806;18.270;2023-04-08T23:21:11;105.13;;;32.35;;
51927;SDS011;37953;52.806;18.270;2023-04-08T23:23:37;50.78;;;28.73;;